createdAt,value
2022-08-28T00:00:32.069Z,23.84
2022-08-28T00:03:00.452Z,23.81
2022-08-28T00:05:31.575Z,23.81
2022-08-28T00:08:00.023Z,23.82
2022-08-28T00:10:28.962Z,23.80
2022-08-28T00:12:58.120Z,23.78
2022-08-28T00:15:28.750Z,23.77
2022-08-28T00:17:56.482Z,23.81
2022-08-28T00:20:24.600Z,23.77
2022-08-28T00:22:55.484Z,23.76
2022-08-28T00:25:25.059Z,23.76
2022-08-28T00:27:55.247Z,23.73
2022-08-28T00:30:25.287Z,23.72
2022-08-28T00:32:55.153Z,23.73
2022-08-28T00:35:24.286Z,23.74
2022-08-28T00:37:54.974Z,23.70
2022-08-28T00:40:30.508Z,23.73
2022-08-28T00:43:01.820Z,23.72
2022-08-28T00:45:29.989Z,23.70
2022-08-28T00:47:58.412Z,23.69
2022-08-28T00:50:29.575Z,23.68
2022-08-28T00:53:01.002Z,23.66
2022-08-28T00:55:30.371Z,23.63
2022-08-28T00:58:00.694Z,23.61
2022-08-28T01:00:32.160Z,23.60
2022-08-28T01:03:00.156Z,23.63
2022-08-28T01:05:29.289Z,23.56
2022-08-28T01:08:00.196Z,23.57
2022-08-28T01:10:30.035Z,23.53
2022-08-28T01:12:58.674Z,23.54
2022-08-28T01:15:32.688Z,23.52
2022-08-28T01:18:08.234Z,23.52
2022-08-28T01:20:39.105Z,23.48
2022-08-28T01:23:14.461Z,23.52
2022-08-28T01:25:43.678Z,23.51
2022-08-28T01:28:14.216Z,23.49
2022-08-28T01:30:45.516Z,23.47
2022-08-28T01:33:14.445Z,23.46
2022-08-28T01:35:45.251Z,23.44
2022-08-28T01:38:13.015Z,23.44
2022-08-28T01:40:50.471Z,23.37
2022-08-28T01:43:19.949Z,23.39
2022-08-28T01:45:52.914Z,23.32
2022-08-28T01:48:22.084Z,23.28
2022-08-28T01:50:50.742Z,23.32
2022-08-28T01:53:25.057Z,23.29
2022-08-28T01:55:56.815Z,23.30
2022-08-28T01:58:26.365Z,23.27
2022-08-28T02:00:55.716Z,23.26
2022-08-28T02:03:24.490Z,23.23
2022-08-28T02:05:52.574Z,23.23
2022-08-28T02:08:21.150Z,23.27
2022-08-28T02:10:50.113Z,23.24
2022-08-28T02:13:19.305Z,23.19
2022-08-28T02:15:47.602Z,23.19
2022-08-28T02:18:15.788Z,23.21
2022-08-28T02:20:43.922Z,23.23
2022-08-28T02:23:12.441Z,23.26
2022-08-28T02:25:41.817Z,23.19
2022-08-28T02:28:09.817Z,23.21
2022-08-28T02:30:40.072Z,23.20
2022-08-28T02:33:08.357Z,23.16
2022-08-28T02:35:36.133Z,23.16
2022-08-28T02:38:04.653Z,23.18
2022-08-28T02:40:32.620Z,23.19
2022-08-28T02:43:00.331Z,23.17
2022-08-28T02:45:27.965Z,23.15
2022-08-28T02:47:57.301Z,23.09
2022-08-28T02:50:25.804Z,23.07
2022-08-28T02:52:53.589Z,23.09
2022-08-28T02:55:21.829Z,23.14
2022-08-28T02:57:49.996Z,23.12
2022-08-28T03:00:21.131Z,23.12
2022-08-28T03:02:49.932Z,23.11
2022-08-28T03:05:21.773Z,23.12
2022-08-28T03:07:49.906Z,23.12
2022-08-28T03:10:18.636Z,23.15
2022-08-28T03:12:46.642Z,23.14
2022-08-28T03:15:14.608Z,23.11
2022-08-28T03:17:42.359Z,23.05
2022-08-28T03:20:12.861Z,23.08
2022-08-28T03:22:59.694Z,23.09
2022-08-28T03:25:28.065Z,23.04
2022-08-28T03:27:56.025Z,23.11
2022-08-28T03:30:24.160Z,23.13
2022-08-28T03:32:51.935Z,23.12
2022-08-28T03:35:20.236Z,23.10
2022-08-28T03:37:49.305Z,23.08
2022-08-28T03:40:17.525Z,23.07
2022-08-28T03:42:53.394Z,23.00
2022-08-28T03:45:22.601Z,22.98
2022-08-28T03:47:51.015Z,22.87
2022-08-28T03:50:19.711Z,22.92
2022-08-28T03:52:49.360Z,22.92
2022-08-28T03:55:18.825Z,22.94
2022-08-28T03:57:46.817Z,22.93
2022-08-28T04:00:16.420Z,22.94
2022-08-28T04:02:44.793Z,22.95
2022-08-28T04:05:13.972Z,22.93
2022-08-28T04:07:41.770Z,22.91
2022-08-28T04:10:12.097Z,22.93
2022-08-28T04:12:39.868Z,22.92
2022-08-28T04:15:09.148Z,22.92
2022-08-28T04:17:39.022Z,22.94
2022-08-28T04:20:08.525Z,22.90
2022-08-28T04:22:37.281Z,22.88
2022-08-28T04:25:05.471Z,22.89
2022-08-28T04:27:35.079Z,22.92
2022-08-28T04:30:03.033Z,22.88
2022-08-28T04:32:30.711Z,22.86
2022-08-28T04:34:58.534Z,22.84
2022-08-28T04:37:27.873Z,22.66
2022-08-28T04:39:56.023Z,22.63
2022-08-28T04:42:23.781Z,22.60
2022-08-28T04:44:56.946Z,22.57
2022-08-28T04:47:24.640Z,22.57
2022-08-28T04:49:52.286Z,22.59
2022-08-28T04:52:19.996Z,22.61
2022-08-28T04:54:47.647Z,22.62
2022-08-28T04:57:15.280Z,22.67
2022-08-28T04:59:44.983Z,22.71
2022-08-28T05:02:14.156Z,22.74
2022-08-28T05:04:41.899Z,22.72
2022-08-28T05:07:09.635Z,22.73
2022-08-28T05:09:37.313Z,22.73
2022-08-28T05:12:06.499Z,22.77
2022-08-28T05:14:34.137Z,22.74
2022-08-28T05:17:01.797Z,22.75
2022-08-28T05:19:31.283Z,22.75
2022-08-28T05:21:59.000Z,22.73
2022-08-28T05:24:26.812Z,22.76
2022-08-28T05:26:54.494Z,22.72
2022-08-28T05:29:24.223Z,22.72
2022-08-28T05:31:53.125Z,22.71
2022-08-28T05:34:21.397Z,22.74
2022-08-28T05:36:52.378Z,22.75
2022-08-28T05:39:20.106Z,22.72
2022-08-28T05:41:48.046Z,22.74
2022-08-28T05:44:18.078Z,22.73
2022-08-28T05:46:48.134Z,22.80
2022-08-28T05:49:17.772Z,22.79
2022-08-28T05:51:46.230Z,22.80
2022-08-28T05:54:16.124Z,22.86
2022-08-28T05:56:46.097Z,22.89
2022-08-28T05:59:22.794Z,22.87
2022-08-28T06:01:50.796Z,22.84
2022-08-28T06:04:23.402Z,22.80
2022-08-28T06:06:51.199Z,22.80
2022-08-28T06:09:28.107Z,22.84
2022-08-28T06:11:58.717Z,22.86
2022-08-28T06:14:27.738Z,22.86
2022-08-28T06:16:56.925Z,22.92
2022-08-28T06:19:27.161Z,22.81
2022-08-28T06:21:57.173Z,22.84
2022-08-28T06:24:27.464Z,22.88
2022-08-28T06:26:58.532Z,22.85
2022-08-28T06:29:27.516Z,22.86
2022-08-28T06:31:56.659Z,22.89
2022-08-28T06:34:24.396Z,22.94
2022-08-28T06:36:54.184Z,23.00
2022-08-28T06:39:22.772Z,23.02
2022-08-28T06:41:52.314Z,23.10
2022-08-28T06:44:21.813Z,23.15
2022-08-28T06:46:51.721Z,23.21
2022-08-28T06:49:19.477Z,23.25
2022-08-28T06:51:47.265Z,23.24
2022-08-28T06:54:21.149Z,23.24
2022-08-28T06:56:52.203Z,23.24
2022-08-28T06:59:19.844Z,23.26
2022-08-28T07:01:47.648Z,23.25
2022-08-28T07:04:15.749Z,23.18
2022-08-28T07:06:46.769Z,23.19
2022-08-28T07:09:15.135Z,23.19
2022-08-28T07:11:46.583Z,23.26
2022-08-28T07:14:15.753Z,23.26
2022-08-28T07:16:44.447Z,23.32
2022-08-28T07:19:13.386Z,23.40
2022-08-28T07:21:44.100Z,23.43
2022-08-28T07:24:14.675Z,23.35
2022-08-28T07:26:43.547Z,23.35
2022-08-28T07:29:11.957Z,23.34
2022-08-28T07:31:44.009Z,23.35
2022-08-28T07:34:13.699Z,23.38
2022-08-28T07:36:41.972Z,23.29
2022-08-28T07:39:10.849Z,23.29
2022-08-28T07:41:42.489Z,23.29
2022-08-28T07:44:30.179Z,23.32
2022-08-28T07:47:02.219Z,23.28
2022-08-28T07:49:30.013Z,23.29
2022-08-28T07:51:58.111Z,23.27
2022-08-28T07:54:25.839Z,23.26
2022-08-28T07:56:54.091Z,23.31
2022-08-28T07:59:22.009Z,23.33
2022-08-28T08:01:51.801Z,23.37
2022-08-28T08:04:23.355Z,23.41
2022-08-28T08:06:57.181Z,23.44
2022-08-28T08:09:27.251Z,23.47
2022-08-28T08:11:57.281Z,23.56
2022-08-28T08:14:25.611Z,23.64
2022-08-28T08:16:53.476Z,23.68
2022-08-28T08:19:22.680Z,23.78
2022-08-28T08:21:54.883Z,23.89
2022-08-28T08:24:26.095Z,24.02
2022-08-28T08:26:59.328Z,24.09
2022-08-28T08:29:29.519Z,24.14
2022-08-28T08:31:58.190Z,24.19
2022-08-28T08:34:27.262Z,24.22
2022-08-28T08:36:55.392Z,24.35
2022-08-28T08:39:23.171Z,24.48
2022-08-28T08:41:55.806Z,24.68
2022-08-28T08:44:34.031Z,24.93
2022-08-28T08:47:14.624Z,25.10
2022-08-28T08:49:50.769Z,25.16
2022-08-28T08:52:34.456Z,25.18
2022-08-28T08:55:20.302Z,25.17
2022-08-28T08:57:52.327Z,25.13
2022-08-28T09:00:21.639Z,25.11
2022-08-28T09:02:58.131Z,25.15
2022-08-28T09:05:40.167Z,25.16
2022-08-28T09:08:13.197Z,25.14
2022-08-28T09:10:53.030Z,25.10
2022-08-28T09:13:29.521Z,25.02
2022-08-28T09:15:57.249Z,24.98
2022-08-28T09:18:28.095Z,24.95
2022-08-28T09:20:59.355Z,24.97
2022-08-28T09:23:29.883Z,25.01
2022-08-28T09:26:01.739Z,25.19
2022-08-28T09:28:34.202Z,25.40
2022-08-28T09:31:05.611Z,25.56
2022-08-28T09:33:41.711Z,25.74
2022-08-28T09:36:33.609Z,25.91
2022-08-28T09:39:14.018Z,26.14
2022-08-28T09:42:09.409Z,25.99
2022-08-28T09:44:51.322Z,25.97
2022-08-28T09:47:46.492Z,26.05
2022-08-28T09:50:34.627Z,26.16
2022-08-28T09:53:20.552Z,26.23
2022-08-28T09:55:56.398Z,26.21
2022-08-28T09:58:29.523Z,26.21
2022-08-28T10:01:04.004Z,26.23
2022-08-28T10:03:39.455Z,26.11
2022-08-28T10:06:12.348Z,26.07
2022-08-28T10:08:55.328Z,25.99
2022-08-28T10:11:31.734Z,25.92
2022-08-28T10:14:10.380Z,25.89
2022-08-28T10:16:47.632Z,25.82
2022-08-28T10:19:27.008Z,25.77
2022-08-28T10:22:04.834Z,25.80
2022-08-28T10:24:57.822Z,25.87
2022-08-28T10:27:41.448Z,25.81
2022-08-28T10:30:13.992Z,25.77
2022-08-28T10:33:01.368Z,25.73
2022-08-28T10:35:41.701Z,25.78
2022-08-28T10:38:13.216Z,25.85
2022-08-28T10:40:51.609Z,25.98
2022-08-28T10:43:25.038Z,26.03
2022-08-28T10:45:55.032Z,26.05
2022-08-28T10:48:27.053Z,26.06
2022-08-28T10:51:01.101Z,26.02
2022-08-28T10:53:33.977Z,25.98
2022-08-28T10:56:07.715Z,26.04
2022-08-28T10:58:39.409Z,26.08
2022-08-28T11:01:10.733Z,26.09
2022-08-28T11:03:43.571Z,26.10
2022-08-28T11:06:19.443Z,26.13
2022-08-28T11:08:54.154Z,26.15
2022-08-28T11:11:43.578Z,26.14
2022-08-28T11:14:23.228Z,26.10
2022-08-28T11:16:51.628Z,26.13
2022-08-28T11:19:45.491Z,27.04
2022-08-28T11:22:18.717Z,28.60
2022-08-28T11:25:01.737Z,30.08
2022-08-28T11:27:34.578Z,32.50
2022-08-28T11:30:33.030Z,33.12
2022-08-28T11:33:10.132Z,32.65
2022-08-28T11:35:48.296Z,33.15
2022-08-28T11:38:49.034Z,32.68
2022-08-28T11:41:22.643Z,31.58
2022-08-28T11:44:12.831Z,31.03
2022-08-28T11:46:42.381Z,30.50
2022-08-28T11:49:39.300Z,30.06
2022-08-28T11:52:15.578Z,29.60
2022-08-28T11:54:52.456Z,29.34
2022-08-28T11:57:26.478Z,29.03
2022-08-28T12:00:05.059Z,28.68
2022-08-28T12:02:59.311Z,28.51
2022-08-28T12:05:48.719Z,28.13
2022-08-28T12:08:54.954Z,27.91
2022-08-28T12:12:04.529Z,27.68
2022-08-28T12:15:07.383Z,27.56
2022-08-28T12:17:54.070Z,27.50
2022-08-28T12:20:48.312Z,27.51
2022-08-28T12:23:43.512Z,27.37
2022-08-28T12:26:22.256Z,27.37
2022-08-28T12:28:52.883Z,27.29
2022-08-28T12:32:09.118Z,27.33
2022-08-28T12:34:44.426Z,27.32
2022-08-28T12:37:26.614Z,27.50
2022-08-28T12:39:57.457Z,27.58
2022-08-28T12:42:31.535Z,27.58
2022-08-28T12:45:19.509Z,27.48
2022-08-28T12:47:50.972Z,27.47
2022-08-28T12:50:23.274Z,27.43
2022-08-28T12:52:52.218Z,27.43
2022-08-28T12:55:24.293Z,27.41
2022-08-28T12:57:53.941Z,27.43
2022-08-28T13:00:24.134Z,27.57
2022-08-28T13:02:55.471Z,27.68
2022-08-28T13:05:30.400Z,27.67
2022-08-28T13:08:01.106Z,27.58
2022-08-28T13:10:31.185Z,27.61
2022-08-28T13:13:05.596Z,27.55
2022-08-28T13:15:53.418Z,27.47
2022-08-28T13:18:59.146Z,27.44
2022-08-28T13:21:35.010Z,27.37
2022-08-28T13:24:27.264Z,27.28
2022-08-28T13:27:04.824Z,27.34
2022-08-28T13:29:33.293Z,27.26
2022-08-28T13:32:03.262Z,27.22
2022-08-28T13:34:34.191Z,27.23
2022-08-28T13:37:05.829Z,27.17
2022-08-28T13:39:42.324Z,27.11
2022-08-28T13:42:13.844Z,27.20
2022-08-28T13:44:48.557Z,27.20
2022-08-28T13:47:17.203Z,27.17
2022-08-28T13:49:46.506Z,27.13
2022-08-28T13:52:14.824Z,27.14
2022-08-28T13:54:43.652Z,27.05
2022-08-28T13:57:13.354Z,26.93
2022-08-28T13:59:41.813Z,26.92
2022-08-28T14:02:30.866Z,26.90
2022-08-28T14:05:00.719Z,26.96
2022-08-28T14:07:29.367Z,27.03
2022-08-28T14:09:57.234Z,26.99
2022-08-28T14:12:32.726Z,26.98
2022-08-28T14:15:01.566Z,26.95
2022-08-28T14:17:29.413Z,27.01
2022-08-28T14:19:57.467Z,27.08
2022-08-28T14:22:26.476Z,27.07
2022-08-28T14:24:54.275Z,27.04
2022-08-28T14:27:21.903Z,27.02
2022-08-28T14:29:49.966Z,27.04
2022-08-28T14:32:17.657Z,27.09
2022-08-28T14:34:45.868Z,27.10
2022-08-28T14:37:13.699Z,27.07
2022-08-28T14:39:45.024Z,27.10
2022-08-28T14:42:13.280Z,27.14
2022-08-28T14:44:41.143Z,27.15
2022-08-28T14:47:08.927Z,27.18
2022-08-28T14:49:36.610Z,27.15
2022-08-28T14:52:04.928Z,27.14
2022-08-28T14:54:32.905Z,27.08
2022-08-28T14:57:02.265Z,27.00
2022-08-28T14:59:31.885Z,26.90
2022-08-28T15:02:01.763Z,26.89
2022-08-28T15:04:34.639Z,26.84
2022-08-28T15:07:06.441Z,26.77
2022-08-28T15:09:37.733Z,26.79
2022-08-28T15:12:07.672Z,26.80
2022-08-28T15:14:36.013Z,26.83
2022-08-28T15:17:04.385Z,26.90
2022-08-28T15:19:32.177Z,26.96
2022-08-28T15:22:00.311Z,26.92
2022-08-28T15:24:31.331Z,26.87
2022-08-28T15:26:59.674Z,26.85
2022-08-28T15:29:29.969Z,26.91
2022-08-28T15:31:58.915Z,26.94
2022-08-28T15:34:28.385Z,26.82
2022-08-28T15:36:57.877Z,26.79
2022-08-28T15:39:45.182Z,26.75
2022-08-28T15:42:13.505Z,26.71
2022-08-28T15:44:42.672Z,26.71
2022-08-28T15:47:10.358Z,26.67
2022-08-28T15:49:44.729Z,26.65
2022-08-28T15:52:16.309Z,26.65
2022-08-28T15:54:43.993Z,26.64
2022-08-28T15:57:11.667Z,26.65
2022-08-28T15:59:48.577Z,26.64
2022-08-28T16:02:20.442Z,26.63
2022-08-28T16:04:48.609Z,26.62
2022-08-28T16:07:16.690Z,26.62
2022-08-28T16:09:44.356Z,26.60
2022-08-28T16:12:12.197Z,26.54
2022-08-28T16:14:40.095Z,26.55
2022-08-28T16:17:10.706Z,26.51
2022-08-28T16:19:40.987Z,26.51
2022-08-28T16:22:08.950Z,26.50
2022-08-28T16:24:36.889Z,26.48
2022-08-28T16:27:06.218Z,26.47
2022-08-28T16:29:36.589Z,26.44
2022-08-28T16:32:05.938Z,26.40
2022-08-28T16:34:34.590Z,26.39
2022-08-28T16:37:03.614Z,26.37
2022-08-28T16:39:31.394Z,26.39
2022-08-28T16:41:59.539Z,26.37
2022-08-28T16:44:27.356Z,26.38
2022-08-28T16:46:55.818Z,26.33
2022-08-28T16:49:24.880Z,26.32
2022-08-28T16:51:52.703Z,26.30
2022-08-28T16:54:22.330Z,26.27
2022-08-28T16:56:50.059Z,26.24
2022-08-28T16:59:18.991Z,26.23
2022-08-28T17:01:47.506Z,26.22
2022-08-28T17:04:20.860Z,26.20
2022-08-28T17:06:48.656Z,26.17
2022-08-28T17:09:16.367Z,26.16
2022-08-28T17:11:51.538Z,26.15
2022-08-28T17:14:20.271Z,26.11
2022-08-28T17:16:48.457Z,26.09
2022-08-28T17:19:16.381Z,26.07
2022-08-28T17:22:01.936Z,26.04
2022-08-28T17:24:30.931Z,26.03
2022-08-28T17:27:05.161Z,26.02
2022-08-28T17:29:33.900Z,26.01
2022-08-28T17:32:01.870Z,26.02
2022-08-28T17:34:30.579Z,26.01
2022-08-28T17:36:58.671Z,25.99
2022-08-28T17:39:26.795Z,25.95
2022-08-28T17:41:54.470Z,25.94
2022-08-28T17:44:23.663Z,25.92
2022-08-28T17:46:52.599Z,25.89
2022-08-28T17:49:20.329Z,25.85
2022-08-28T17:51:48.118Z,25.82
2022-08-28T17:54:17.765Z,25.79
2022-08-28T17:56:46.432Z,25.75
2022-08-28T17:59:15.130Z,25.73
2022-08-28T18:01:46.425Z,25.75
2022-08-28T18:04:16.219Z,25.79
2022-08-28T18:06:46.358Z,25.84
2022-08-28T18:09:15.437Z,25.84
2022-08-28T18:11:43.510Z,25.79
2022-08-28T18:14:11.279Z,25.72
2022-08-28T18:16:39.963Z,25.68
2022-08-28T18:19:10.829Z,25.66
2022-08-28T18:21:39.425Z,25.62
2022-08-28T18:24:08.254Z,25.61
2022-08-28T18:26:36.545Z,25.56
2022-08-28T18:29:04.521Z,25.49
2022-08-28T18:31:32.520Z,25.48
2022-08-28T18:34:00.264Z,25.42
2022-08-28T18:36:29.427Z,25.37
2022-08-28T18:38:57.833Z,25.36
2022-08-28T18:41:34.483Z,25.35
2022-08-28T18:44:12.372Z,25.34
2022-08-28T18:46:40.067Z,25.33
2022-08-28T18:49:07.931Z,25.32
2022-08-28T18:51:37.374Z,25.31
2022-08-28T18:54:05.224Z,25.30
2022-08-28T18:56:33.971Z,25.27
2022-08-28T18:59:04.185Z,25.24
2022-08-28T19:01:32.024Z,25.21
2022-08-28T19:03:59.851Z,25.20
2022-08-28T19:06:27.623Z,25.19
2022-08-28T19:08:57.290Z,25.15
2022-08-28T19:11:25.430Z,25.13
2022-08-28T19:13:53.619Z,25.10
2022-08-28T19:16:21.843Z,25.11
2022-08-28T19:18:51.473Z,25.08
2022-08-28T19:21:20.843Z,25.05
2022-08-28T19:23:56.031Z,25.04
2022-08-28T19:26:26.475Z,25.01
2022-08-28T19:28:54.412Z,24.96
2022-08-28T19:31:22.897Z,24.90
2022-08-28T19:33:52.522Z,24.88
2022-08-28T19:36:21.293Z,24.84
2022-08-28T19:38:49.190Z,24.82
2022-08-28T19:41:17.730Z,24.78
2022-08-28T19:43:46.854Z,24.81
2022-08-28T19:46:20.112Z,24.81
2022-08-28T19:48:48.850Z,24.82
2022-08-28T19:51:22.210Z,24.82
2022-08-28T19:53:56.868Z,24.75
2022-08-28T19:56:27.189Z,24.71
2022-08-28T19:58:58.917Z,24.72
2022-08-28T20:01:29.430Z,24.71
2022-08-28T20:03:58.344Z,24.66
2022-08-28T20:06:26.343Z,24.63
2022-08-28T20:08:54.079Z,24.59
2022-08-28T20:11:24.892Z,24.57
2022-08-28T20:13:53.323Z,24.54
2022-08-28T20:16:22.586Z,24.54
2022-08-28T20:18:50.946Z,24.51
2022-08-28T20:21:36.713Z,24.49
2022-08-28T20:24:07.406Z,24.44
2022-08-28T20:26:35.645Z,24.37
2022-08-28T20:29:03.778Z,24.35
2022-08-28T20:31:33.097Z,24.33
2022-08-28T20:34:00.895Z,24.33
2022-08-28T20:36:28.605Z,24.35
2022-08-28T20:38:56.345Z,24.29
2022-08-28T20:41:24.167Z,24.25
2022-08-28T20:43:54.382Z,24.24
2022-08-28T20:46:22.165Z,24.23
2022-08-28T20:48:51.281Z,24.19
2022-08-28T20:51:39.387Z,24.13
2022-08-28T20:54:07.154Z,24.09
2022-08-28T20:56:34.927Z,24.09
2022-08-28T20:59:02.738Z,24.03
2022-08-28T21:01:32.087Z,24.01
2022-08-28T21:04:01.430Z,23.97
2022-08-28T21:06:30.224Z,23.93
2022-08-28T21:08:58.119Z,23.89
2022-08-28T21:11:25.909Z,23.90
2022-08-28T21:13:54.082Z,23.88
2022-08-28T21:16:22.298Z,23.83
2022-08-28T21:19:14.743Z,23.84
2022-08-28T21:21:39.684Z,23.83
2022-08-28T21:24:10.444Z,23.80
2022-08-28T21:26:38.285Z,23.80
2022-08-28T21:29:06.507Z,23.77
2022-08-28T21:31:34.923Z,23.75
2022-08-28T21:34:02.724Z,23.72
2022-08-28T21:36:30.514Z,23.69
2022-08-28T21:38:59.684Z,23.66
2022-08-28T21:41:27.440Z,23.60
2022-08-28T21:43:56.809Z,23.60
2022-08-28T21:46:24.686Z,23.59
2022-08-28T21:48:53.359Z,23.57
2022-08-28T21:51:21.504Z,23.56
2022-08-28T21:53:49.399Z,23.52
2022-08-28T21:56:22.716Z,23.51
2022-08-28T21:58:51.164Z,23.49
2022-08-28T22:01:20.501Z,23.50
2022-08-28T22:03:48.777Z,23.45
2022-08-28T22:06:19.374Z,23.41
2022-08-28T22:08:48.123Z,23.42
2022-08-28T22:11:17.103Z,23.38
2022-08-28T22:13:54.755Z,23.37
2022-08-28T22:16:23.525Z,23.37
2022-08-28T22:18:51.909Z,23.29
2022-08-28T22:21:43.883Z,23.26
2022-08-28T22:24:13.172Z,23.23
2022-08-28T22:26:42.211Z,23.19
2022-08-28T22:29:11.823Z,23.16
2022-08-28T22:31:43.917Z,23.11
2022-08-28T22:34:14.137Z,23.11
2022-08-28T22:36:41.805Z,23.12
2022-08-28T22:39:09.488Z,23.11
2022-08-28T22:41:38.567Z,23.12
2022-08-28T22:44:07.165Z,23.09
2022-08-28T22:46:36.268Z,23.06
2022-08-28T22:49:04.385Z,23.02
2022-08-28T22:51:34.767Z,22.99
2022-08-28T22:54:02.618Z,22.97
2022-08-28T22:56:30.310Z,22.92
2022-08-28T22:58:57.944Z,22.93
2022-08-28T23:01:26.731Z,22.89
2022-08-28T23:03:57.841Z,22.86
2022-08-28T23:06:25.622Z,22.87
2022-08-28T23:08:53.313Z,22.83
2022-08-28T23:11:21.153Z,22.76
2022-08-28T23:13:50.549Z,22.79
2022-08-28T23:16:23.874Z,22.72
2022-08-28T23:19:08.912Z,22.76
2022-08-28T23:21:43.890Z,22.74
2022-08-28T23:24:13.163Z,22.68
2022-08-28T23:26:40.928Z,22.71
2022-08-28T23:29:09.218Z,22.67
2022-08-28T23:31:37.301Z,22.64
2022-08-28T23:34:05.485Z,22.66
2022-08-28T23:36:35.500Z,22.63
2022-08-28T23:39:05.790Z,22.60
2022-08-28T23:41:33.980Z,22.58
2022-08-28T23:44:07.799Z,22.54
2022-08-28T23:46:36.773Z,22.51
2022-08-28T23:49:09.238Z,22.49
2022-08-28T23:51:36.959Z,22.47
2022-08-28T23:54:06.146Z,22.48
2022-08-28T23:56:36.548Z,22.50
2022-08-28T23:59:05.209Z,22.46
